createdAt,value
2017-02-28T00:00:26.061Z,0
2017-02-28T00:01:36.681Z,0
2017-02-28T00:02:46.878Z,0
2017-02-28T00:03:57.069Z,0
2017-02-28T00:05:06.806Z,0
2017-02-28T00:06:16.594Z,0
2017-02-28T00:07:27.228Z,0
2017-02-28T00:08:37.438Z,0
2017-02-28T00:09:46.774Z,0
2017-02-28T00:10:56.962Z,0
2017-02-28T00:12:06.781Z,0
2017-02-28T00:13:17.870Z,0
2017-02-28T00:14:28.058Z,0
2017-02-28T00:15:37.807Z,0
2017-02-28T00:16:47.991Z,0
2017-02-28T00:17:57.797Z,0
2017-02-28T00:19:07.980Z,0
2017-02-28T00:20:17.292Z,0
2017-02-28T00:21:27.917Z,0
2017-02-28T00:22:38.554Z,0
2017-02-28T00:23:48.805Z,0
2017-02-28T00:24:59.420Z,0
2017-02-28T00:26:09.599Z,0
2017-02-28T00:27:19.791Z,0
2017-02-28T00:28:30.429Z,0
2017-02-28T00:29:40.863Z,0
2017-02-28T00:30:50.607Z,0
2017-02-28T00:32:00.800Z,0
2017-02-28T00:33:12.311Z,0
2017-02-28T00:34:22.491Z,0
2017-02-28T00:35:32.939Z,0
2017-02-28T00:36:43.117Z,0
2017-02-28T00:37:52.871Z,0
2017-02-28T00:39:02.196Z,0
2017-02-28T00:40:11.949Z,0
2017-02-28T00:41:21.777Z,0
2017-02-28T00:42:31.526Z,0
2017-02-28T00:43:41.712Z,0
2017-02-28T00:44:52.374Z,0
2017-02-28T00:46:02.140Z,0
2017-02-28T00:47:12.401Z,0
2017-02-28T00:48:22.172Z,0
2017-02-28T00:49:32.370Z,0
2017-02-28T00:50:42.992Z,0
2017-02-28T00:51:52.756Z,0
2017-02-28T00:53:03.854Z,0
2017-02-28T00:54:14.524Z,0
2017-02-28T00:55:25.171Z,0
2017-02-28T00:56:35.812Z,0
2017-02-28T00:57:45.999Z,0
2017-02-28T00:58:55.357Z,0
2017-02-28T01:00:05.588Z,0
2017-02-28T01:01:16.645Z,0
2017-02-28T01:02:27.287Z,0
2017-02-28T01:03:37.493Z,0
2017-02-28T01:04:48.171Z,0
2017-02-28T01:05:57.536Z,0
2017-02-28T01:07:07.309Z,0
2017-02-28T01:08:17.058Z,0
2017-02-28T01:09:27.247Z,0
2017-02-28T01:10:37.486Z,0
2017-02-28T01:11:48.118Z,0
2017-02-28T01:12:58.770Z,0
2017-02-28T01:14:08.524Z,0
2017-02-28T01:15:18.724Z,0
2017-02-28T01:16:28.540Z,0
2017-02-28T01:17:37.856Z,0
2017-02-28T01:18:47.647Z,0
2017-02-28T01:19:57.846Z,0
2017-02-28T01:21:07.602Z,0
2017-02-28T01:22:17.408Z,0
2017-02-28T01:23:28.053Z,0
2017-02-28T01:24:37.812Z,0
2017-02-28T01:25:48.882Z,0
2017-02-28T01:26:59.071Z,0
2017-02-28T01:28:09.758Z,0
2017-02-28T01:29:19.967Z,0
2017-02-28T01:30:30.160Z,0
2017-02-28T01:31:40.805Z,0
2017-02-28T01:32:51.863Z,0
2017-02-28T01:34:01.664Z,0
2017-02-28T01:35:11.869Z,0
2017-02-28T01:36:22.495Z,0
2017-02-28T01:37:32.698Z,0
2017-02-28T01:38:42.901Z,0
2017-02-28T01:39:53.148Z,0
2017-02-28T01:41:03.339Z,0
2017-02-28T01:42:13.114Z,0
2017-02-28T01:43:23.325Z,0
2017-02-28T01:44:33.082Z,0
2017-02-28T01:45:43.327Z,0
2017-02-28T01:46:52.645Z,0
2017-02-28T01:48:02.386Z,0
2017-02-28T01:49:12.573Z,0
2017-02-28T01:50:22.338Z,0
2017-02-28T01:51:32.340Z,0
2017-02-28T01:52:42.998Z,0
2017-02-28T01:53:53.206Z,0
2017-02-28T01:55:03.851Z,0
2017-02-28T01:56:13.612Z,0
2017-02-28T01:57:24.442Z,0
2017-02-28T01:58:34.630Z,0
2017-02-28T01:59:44.809Z,0
2017-02-28T02:00:54.992Z,0
2017-02-28T02:02:04.759Z,0
2017-02-28T02:03:14.160Z,0
2017-02-28T02:04:23.922Z,0
2017-02-28T02:05:34.111Z,0
2017-02-28T02:06:44.326Z,0
2017-02-28T02:07:54.520Z,0
2017-02-28T02:09:03.876Z,0
2017-02-28T02:10:14.059Z,0
2017-02-28T02:11:23.839Z,0
2017-02-28T02:12:33.632Z,0
2017-02-28T02:13:44.253Z,0
2017-02-28T02:14:54.496Z,0
2017-02-28T02:16:04.671Z,0
2017-02-28T02:17:14.853Z,0
2017-02-28T02:18:25.039Z,0
2017-02-28T02:19:35.675Z,0
2017-02-28T02:20:46.357Z,0
2017-02-28T02:21:56.534Z,0
2017-02-28T02:23:05.887Z,0
2017-02-28T02:24:15.659Z,0
2017-02-28T02:25:25.465Z,0
2017-02-28T02:26:35.287Z,0
2017-02-28T02:27:44.606Z,0
2017-02-28T02:28:55.261Z,0
2017-02-28T02:30:05.030Z,0
2017-02-28T02:31:15.235Z,0
2017-02-28T02:32:24.632Z,0
2017-02-28T02:33:34.837Z,0
2017-02-28T02:34:44.586Z,0
2017-02-28T02:35:53.915Z,0
2017-02-28T02:37:03.691Z,0
2017-02-28T02:38:13.965Z,0
2017-02-28T02:39:23.302Z,0
2017-02-28T02:40:32.616Z,0
2017-02-28T02:41:41.937Z,0
2017-02-28T02:42:51.698Z,0
2017-02-28T02:44:01.939Z,0
2017-02-28T02:45:11.284Z,0
2017-02-28T02:46:21.489Z,0
2017-02-28T02:47:30.815Z,0
2017-02-28T02:48:40.192Z,0
2017-02-28T02:49:50.013Z,0
2017-02-28T02:51:00.210Z,0
2017-02-28T02:52:10.847Z,0
2017-02-28T02:53:20.177Z,0
2017-02-28T02:54:29.508Z,0
2017-02-28T02:55:39.317Z,0
2017-02-28T02:56:49.527Z,0
2017-02-28T02:57:59.753Z,0
2017-02-28T02:59:09.526Z,0
2017-02-28T03:00:18.848Z,0
2017-02-28T03:01:28.243Z,0
2017-02-28T03:02:37.570Z,0
2017-02-28T03:03:46.938Z,0
2017-02-28T03:04:56.300Z,0
2017-02-28T03:06:05.657Z,0
2017-02-28T03:07:15.038Z,0
2017-02-28T03:08:24.360Z,0
2017-02-28T03:09:33.709Z,0
2017-02-28T03:10:43.046Z,0
2017-02-28T03:11:52.366Z,0
2017-02-28T03:13:01.720Z,0
2017-02-28T03:14:11.061Z,0
2017-02-28T03:15:20.830Z,0
2017-02-28T03:16:30.186Z,0
2017-02-28T03:17:39.952Z,0
2017-02-28T03:18:49.774Z,0
2017-02-28T03:19:59.115Z,0
2017-02-28T03:21:08.448Z,0
2017-02-28T03:22:18.205Z,0
2017-02-28T03:23:27.534Z,0
2017-02-28T03:24:36.942Z,0
2017-02-28T03:25:47.144Z,0
2017-02-28T03:26:56.908Z,0
2017-02-28T03:28:06.678Z,0
2017-02-28T03:29:16.023Z,0
2017-02-28T03:30:25.863Z,0
2017-02-28T03:31:36.514Z,0
2017-02-28T03:32:45.843Z,0
2017-02-28T03:33:55.188Z,0
2017-02-28T03:35:05.387Z,0
2017-02-28T03:36:15.666Z,0
2017-02-28T03:37:25.423Z,0
2017-02-28T03:38:35.178Z,0
2017-02-28T03:39:45.821Z,0
2017-02-28T03:40:55.142Z,0
2017-02-28T03:42:04.511Z,0
2017-02-28T03:43:13.833Z,0
2017-02-28T03:44:23.160Z,0
2017-02-28T03:45:32.926Z,0
2017-02-28T03:46:42.279Z,0
2017-02-28T03:47:52.097Z,0
2017-02-28T03:49:01.434Z,0
2017-02-28T03:50:11.195Z,0
2017-02-28T03:51:20.949Z,0
2017-02-28T03:52:30.289Z,0
2017-02-28T03:53:40.549Z,0
2017-02-28T03:54:50.324Z,0
2017-02-28T03:55:59.644Z,0
2017-02-28T03:57:08.966Z,0
2017-02-28T03:58:18.275Z,0
2017-02-28T03:59:27.675Z,0
2017-02-28T04:00:37.885Z,0
2017-02-28T04:01:47.650Z,0
2017-02-28T04:02:56.984Z,0
2017-02-28T04:04:06.299Z,0
2017-02-28T04:05:16.138Z,0
2017-02-28T04:06:25.483Z,0
2017-02-28T04:07:34.818Z,0
2017-02-28T04:08:44.606Z,0
2017-02-28T04:09:54.814Z,0
2017-02-28T04:11:04.620Z,0
2017-02-28T04:12:13.952Z,0
2017-02-28T04:13:23.722Z,0
2017-02-28T04:14:33.043Z,0
2017-02-28T04:15:42.377Z,0
2017-02-28T04:16:51.790Z,0
2017-02-28T04:18:01.099Z,0
2017-02-28T04:19:10.444Z,0
2017-02-28T04:20:19.750Z,0
2017-02-28T04:21:29.101Z,0
2017-02-28T04:22:38.476Z,0
2017-02-28T04:23:47.788Z,0
2017-02-28T04:24:57.571Z,0
2017-02-28T04:26:08.208Z,0
2017-02-28T04:27:17.546Z,0
2017-02-28T04:28:27.374Z,0
2017-02-28T04:29:36.679Z,0
2017-02-28T04:30:46.885Z,0
2017-02-28T04:31:56.648Z,0
2017-02-28T04:33:06.411Z,0
2017-02-28T04:34:16.241Z,0
2017-02-28T04:35:25.552Z,0
2017-02-28T04:36:35.327Z,0
2017-02-28T04:37:44.657Z,0
2017-02-28T04:38:54.425Z,0
2017-02-28T04:40:03.806Z,0
2017-02-28T04:41:13.570Z,0
2017-02-28T04:42:22.908Z,0
2017-02-28T04:43:32.252Z,0
2017-02-28T04:44:42.011Z,0
2017-02-28T04:45:52.277Z,0
2017-02-28T04:47:01.626Z,0
2017-02-28T04:48:10.975Z,0
2017-02-28T04:49:21.215Z,0
2017-02-28T04:50:30.542Z,0
2017-02-28T04:51:39.954Z,0
2017-02-28T04:52:49.312Z,0
2017-02-28T04:53:58.640Z,0
2017-02-28T04:55:07.986Z,0
2017-02-28T04:56:17.322Z,0
2017-02-28T04:57:27.140Z,0
2017-02-28T04:58:36.469Z,0
2017-02-28T04:59:45.819Z,0
2017-02-28T05:00:56.012Z,0
2017-02-28T05:02:05.337Z,0
2017-02-28T05:03:14.859Z,0
2017-02-28T05:04:24.632Z,0
2017-02-28T05:05:34.407Z,0
2017-02-28T05:06:43.730Z,0
2017-02-28T05:07:53.047Z,0
2017-02-28T05:09:02.857Z,0
2017-02-28T05:10:12.178Z,0
2017-02-28T05:11:21.521Z,0
2017-02-28T05:12:31.291Z,0
2017-02-28T05:13:40.653Z,0
2017-02-28T05:14:50.043Z,0
2017-02-28T05:15:59.368Z,0
2017-02-28T05:17:08.688Z,0
2017-02-28T05:18:18.010Z,0
2017-02-28T05:19:27.778Z,0
2017-02-28T05:20:37.153Z,0
2017-02-28T05:21:46.468Z,0
2017-02-28T05:22:57.115Z,0
2017-02-28T05:24:06.448Z,0
2017-02-28T05:25:15.770Z,0
2017-02-28T05:26:25.139Z,0
2017-02-28T05:27:34.472Z,0
2017-02-28T05:28:43.797Z,0
2017-02-28T05:29:53.110Z,0
2017-02-28T05:31:02.444Z,0
2017-02-28T05:32:11.824Z,0
2017-02-28T05:33:22.046Z,0
2017-02-28T05:34:31.811Z,0
2017-02-28T05:35:41.120Z,0
2017-02-28T05:36:50.472Z,0
2017-02-28T05:38:00.274Z,0
2017-02-28T05:39:09.604Z,0
2017-02-28T05:40:18.921Z,0
2017-02-28T05:41:29.113Z,0
2017-02-28T05:42:38.867Z,0
2017-02-28T05:43:48.256Z,0
2017-02-28T05:44:57.590Z,0
2017-02-28T05:46:07.362Z,0
2017-02-28T05:47:16.700Z,0
2017-02-28T05:48:26.481Z,0
2017-02-28T05:49:36.311Z,0
2017-02-28T05:50:46.075Z,0
2017-02-28T05:51:55.393Z,0
2017-02-28T05:53:04.714Z,0
2017-02-28T05:54:14.050Z,0
2017-02-28T05:55:23.432Z,0
2017-02-28T05:56:32.753Z,0
2017-02-28T05:57:42.547Z,0
2017-02-28T05:58:51.860Z,0
2017-02-28T06:00:01.177Z,0
2017-02-28T06:01:10.986Z,0
2017-02-28T06:02:20.759Z,0
2017-02-28T06:03:30.073Z,0
2017-02-28T06:04:39.397Z,0
2017-02-28T06:05:48.722Z,0
2017-02-28T06:06:58.088Z,0
2017-02-28T06:08:07.857Z,0
2017-02-28T06:09:18.949Z,0
2017-02-28T06:10:28.271Z,0
2017-02-28T06:11:38.061Z,0
2017-02-28T06:12:47.464Z,0
2017-02-28T06:13:58.120Z,0
2017-02-28T06:15:07.908Z,0
2017-02-28T06:16:17.269Z,0
2017-02-28T06:17:26.601Z,0
2017-02-28T06:18:36.002Z,0
2017-02-28T06:19:45.764Z,0
2017-02-28T06:20:55.086Z,0
2017-02-28T06:22:04.411Z,0
2017-02-28T06:23:14.184Z,0
2017-02-28T06:24:24.004Z,0
2017-02-28T06:25:33.771Z,5
2017-02-28T06:26:43.544Z,5
2017-02-28T06:27:53.311Z,5
2017-02-28T06:29:03.528Z,5
2017-02-28T06:30:13.385Z,5
2017-02-28T06:31:23.149Z,5
2017-02-28T06:32:32.905Z,5
2017-02-28T06:33:42.218Z,5
2017-02-28T06:34:51.544Z,5
2017-02-28T06:36:01.369Z,5
2017-02-28T06:37:11.152Z,5
2017-02-28T06:38:20.494Z,5
2017-02-28T06:39:29.808Z,5
2017-02-28T06:40:39.129Z,5
2017-02-28T06:41:48.505Z,5
2017-02-28T06:42:58.284Z,5
2017-02-28T06:44:07.609Z,5
2017-02-28T06:45:17.382Z,5
2017-02-28T06:46:26.700Z,10
2017-02-28T06:47:36.096Z,10
2017-02-28T06:48:45.409Z,10
2017-02-28T06:49:54.750Z,10
2017-02-28T06:51:04.092Z,10
2017-02-28T06:52:13.435Z,10
2017-02-28T06:53:23.698Z,10
2017-02-28T06:54:33.052Z,10
2017-02-28T06:55:42.377Z,10
2017-02-28T06:56:52.141Z,10
2017-02-28T06:58:01.467Z,10
2017-02-28T06:59:11.264Z,10
2017-02-28T07:00:20.592Z,10
2017-02-28T07:01:30.342Z,10
2017-02-28T07:02:40.550Z,10
2017-02-28T07:03:50.316Z,15
2017-02-28T07:04:59.702Z,15
2017-02-28T07:06:09.451Z,15
2017-02-28T07:07:18.779Z,15
2017-02-28T07:08:29.429Z,15
2017-02-28T07:09:38.753Z,15
2017-02-28T07:10:48.115Z,15
2017-02-28T07:11:57.432Z,15
2017-02-28T07:13:06.770Z,15
2017-02-28T07:14:16.122Z,15
2017-02-28T07:15:25.444Z,15
2017-02-28T07:16:35.261Z,15
2017-02-28T07:17:44.594Z,15
2017-02-28T07:18:54.347Z,15
2017-02-28T07:20:03.683Z,15
2017-02-28T07:21:13.449Z,15
2017-02-28T07:22:23.274Z,15
2017-02-28T07:23:32.600Z,20
2017-02-28T07:24:41.917Z,20
2017-02-28T07:25:51.238Z,20
2017-02-28T07:27:00.561Z,20
2017-02-28T07:28:10.364Z,20
2017-02-28T07:29:19.701Z,20
2017-02-28T07:30:29.483Z,20
2017-02-28T07:31:38.808Z,20
2017-02-28T07:32:48.121Z,20
2017-02-28T07:33:57.510Z,20
2017-02-28T07:35:07.287Z,20
2017-02-28T07:36:16.599Z,20
2017-02-28T07:37:26.361Z,20
2017-02-28T07:38:35.709Z,20
2017-02-28T07:39:45.503Z,20
2017-02-28T07:40:55.268Z,20
2017-02-28T07:42:05.488Z,20
2017-02-28T07:43:14.803Z,20
2017-02-28T07:44:24.128Z,20
2017-02-28T07:45:33.500Z,20
2017-02-28T07:46:43.254Z,20
2017-02-28T07:47:52.593Z,20
2017-02-28T07:49:02.784Z,20
2017-02-28T07:50:12.109Z,20
2017-02-28T07:51:21.482Z,20
2017-02-28T07:52:30.795Z,25
2017-02-28T07:53:40.121Z,25
2017-02-28T07:54:49.470Z,25
2017-02-28T07:55:59.243Z,25
2017-02-28T07:57:08.724Z,25
2017-02-28T07:58:18.054Z,25
2017-02-28T07:59:27.826Z,25
2017-02-28T08:00:37.151Z,25
2017-02-28T08:01:46.944Z,25
2017-02-28T08:02:56.322Z,25
2017-02-28T08:04:06.563Z,25
2017-02-28T08:05:15.884Z,25
2017-02-28T08:06:26.124Z,25
2017-02-28T08:07:35.465Z,25
2017-02-28T08:08:45.287Z,25
2017-02-28T08:09:54.613Z,25
2017-02-28T08:11:03.938Z,25
2017-02-28T08:12:13.712Z,30
2017-02-28T08:13:23.495Z,30
2017-02-28T08:14:33.780Z,25
2017-02-28T08:15:43.985Z,25
2017-02-28T08:16:53.763Z,25
2017-02-28T08:18:03.112Z,25
2017-02-28T08:19:12.885Z,25
2017-02-28T08:20:22.713Z,25
2017-02-28T08:21:32.479Z,25
2017-02-28T08:22:41.796Z,30
2017-02-28T08:23:51.165Z,30
2017-02-28T08:25:00.479Z,30
2017-02-28T08:26:09.859Z,30
2017-02-28T08:27:19.195Z,30
2017-02-28T08:28:28.528Z,30
2017-02-28T08:29:38.295Z,30
2017-02-28T08:30:47.620Z,30
2017-02-28T08:31:56.994Z,30
2017-02-28T08:33:07.657Z,30
2017-02-28T08:34:16.971Z,30
2017-02-28T08:35:26.727Z,30
2017-02-28T08:36:36.501Z,30
2017-02-28T08:37:45.870Z,35
2017-02-28T08:38:55.656Z,45
2017-02-28T08:40:04.981Z,35
2017-02-28T08:41:15.194Z,35
2017-02-28T08:42:24.519Z,35
2017-02-28T08:43:34.768Z,55
2017-02-28T08:44:44.104Z,45
2017-02-28T08:45:54.793Z,55
2017-02-28T08:47:04.571Z,60
2017-02-28T08:48:14.335Z,55
2017-02-28T08:49:24.134Z,45
2017-02-28T08:50:33.902Z,40
2017-02-28T08:51:43.683Z,55
2017-02-28T08:52:53.010Z,50
2017-02-28T08:54:03.695Z,65
2017-02-28T08:55:13.068Z,45
2017-02-28T08:56:23.276Z,40
2017-02-28T08:57:33.039Z,40
2017-02-28T08:58:42.347Z,45
2017-02-28T08:59:52.104Z,40
2017-02-28T09:01:01.920Z,45
2017-02-28T09:02:11.675Z,50
2017-02-28T09:03:21.056Z,70
2017-02-28T09:04:30.373Z,80
2017-02-28T09:05:40.114Z,105
2017-02-28T09:06:49.931Z,90
2017-02-28T09:07:59.715Z,85
2017-02-28T09:09:09.940Z,80
2017-02-28T09:10:20.151Z,65
2017-02-28T09:11:29.476Z,65
2017-02-28T09:12:38.866Z,65
2017-02-28T09:13:48.630Z,55
2017-02-28T09:14:57.968Z,65
2017-02-28T09:16:08.185Z,60
2017-02-28T09:17:17.534Z,80
2017-02-28T09:18:28.244Z,85
2017-02-28T09:19:37.571Z,80
2017-02-28T09:20:48.213Z,70
2017-02-28T09:21:57.998Z,75
2017-02-28T09:23:07.780Z,85
2017-02-28T09:24:17.189Z,80
2017-02-28T09:25:26.499Z,60
2017-02-28T09:26:35.840Z,45
2017-02-28T09:27:45.596Z,70
2017-02-28T09:28:54.928Z,70
2017-02-28T09:30:04.755Z,65
2017-02-28T09:31:14.076Z,50
2017-02-28T09:32:23.405Z,65
2017-02-28T09:33:32.726Z,65
2017-02-28T09:34:42.047Z,75
2017-02-28T09:35:51.452Z,85
2017-02-28T09:37:00.775Z,70
2017-02-28T09:38:10.119Z,105
2017-02-28T09:39:19.884Z,70
2017-02-28T09:40:29.202Z,110
2017-02-28T09:41:38.575Z,70
2017-02-28T09:42:48.336Z,95
2017-02-28T09:43:57.661Z,60
2017-02-28T09:45:06.999Z,105
2017-02-28T09:46:16.346Z,125
2017-02-28T09:47:26.157Z,100
2017-02-28T09:48:36.346Z,95
2017-02-28T09:49:46.111Z,100
2017-02-28T09:50:55.444Z,50
2017-02-28T09:52:04.765Z,55
2017-02-28T09:53:15.775Z,45
2017-02-28T09:54:25.110Z,40
2017-02-28T09:55:34.882Z,105
2017-02-28T09:56:44.205Z,95
2017-02-28T09:57:53.959Z,90
2017-02-28T09:59:03.785Z,100
2017-02-28T10:00:13.558Z,90
2017-02-28T10:01:23.350Z,105
2017-02-28T10:02:33.159Z,115
2017-02-28T10:03:42.914Z,120
2017-02-28T10:04:52.719Z,100
2017-02-28T10:06:02.050Z,105
2017-02-28T10:07:12.265Z,115
2017-02-28T10:08:21.589Z,135
2017-02-28T10:09:31.343Z,85
2017-02-28T10:10:40.733Z,75
2017-02-28T10:11:50.069Z,90
2017-02-28T10:13:00.279Z,80
2017-02-28T10:14:10.048Z,85
2017-02-28T10:15:19.445Z,90
2017-02-28T10:16:28.821Z,75
2017-02-28T10:17:38.159Z,75
2017-02-28T10:18:47.481Z,65
2017-02-28T10:19:57.246Z,70
2017-02-28T10:21:06.579Z,75
2017-02-28T10:22:16.389Z,65
2017-02-28T10:23:26.641Z,110
2017-02-28T10:24:36.434Z,95
2017-02-28T10:25:45.788Z,100
2017-02-28T10:26:55.541Z,135
2017-02-28T10:28:04.918Z,120
2017-02-28T10:29:14.259Z,90
2017-02-28T10:30:23.587Z,110
2017-02-28T10:31:33.346Z,115
2017-02-28T10:32:43.119Z,100
2017-02-28T10:33:53.368Z,95
2017-02-28T10:35:02.684Z,130
2017-02-28T10:36:12.451Z,120
2017-02-28T10:37:21.788Z,80
2017-02-28T10:38:31.137Z,70
2017-02-28T10:39:40.966Z,60
2017-02-28T10:40:50.283Z,70
2017-02-28T10:42:00.068Z,65
2017-02-28T10:43:09.449Z,70
2017-02-28T10:44:19.230Z,80
2017-02-28T10:45:28.595Z,70
2017-02-28T10:46:38.377Z,100
2017-02-28T10:47:47.698Z,100
2017-02-28T10:48:57.912Z,95
2017-02-28T10:50:07.697Z,170
2017-02-28T10:51:17.074Z,70
2017-02-28T10:52:26.387Z,70
2017-02-28T10:53:35.699Z,85
2017-02-28T10:54:46.117Z,75
2017-02-28T10:55:55.435Z,70
2017-02-28T10:57:04.836Z,75
2017-02-28T10:58:14.145Z,90
2017-02-28T10:59:23.921Z,170
2017-02-28T11:00:33.687Z,155
2017-02-28T11:01:43.012Z,135
2017-02-28T11:02:52.386Z,75
2017-02-28T11:04:01.703Z,65
2017-02-28T11:05:11.064Z,80
2017-02-28T11:06:21.312Z,110
2017-02-28T11:07:31.070Z,75
2017-02-28T11:08:40.902Z,65
2017-02-28T11:09:50.657Z,95
2017-02-28T11:11:00.419Z,95
2017-02-28T11:12:10.210Z,90
2017-02-28T11:13:19.520Z,80
2017-02-28T11:14:28.985Z,65
2017-02-28T11:15:38.307Z,65
2017-02-28T11:16:47.624Z,65
2017-02-28T11:17:57.412Z,60
2017-02-28T11:19:07.158Z,50
2017-02-28T11:20:16.560Z,50
2017-02-28T11:21:26.333Z,60
2017-02-28T11:22:35.650Z,65
2017-02-28T11:23:44.983Z,85
2017-02-28T11:24:54.760Z,90
2017-02-28T11:26:04.221Z,85
2017-02-28T11:27:13.527Z,65
2017-02-28T11:28:23.292Z,60
2017-02-28T11:29:32.623Z,60
2017-02-28T11:30:42.390Z,85
2017-02-28T11:31:51.770Z,90
2017-02-28T11:33:01.112Z,115
2017-02-28T11:34:10.870Z,115
2017-02-28T11:35:20.199Z,80
2017-02-28T11:36:30.408Z,90
2017-02-28T11:37:39.797Z,120
2017-02-28T11:38:49.162Z,85
2017-02-28T11:39:58.492Z,55
2017-02-28T11:41:08.697Z,60
2017-02-28T11:42:18.050Z,135
2017-02-28T11:43:28.019Z,90
2017-02-28T11:44:37.349Z,135
2017-02-28T11:45:47.105Z,130
2017-02-28T11:46:56.423Z,125
2017-02-28T11:48:05.756Z,130
2017-02-28T11:49:15.604Z,145
2017-02-28T11:50:25.369Z,140
2017-02-28T11:51:35.131Z,140
2017-02-28T11:52:44.461Z,90
2017-02-28T11:53:54.217Z,75
2017-02-28T11:55:04.059Z,60
2017-02-28T11:56:13.856Z,55
2017-02-28T11:57:23.630Z,50
2017-02-28T11:58:33.381Z,65
2017-02-28T11:59:42.704Z,45
2017-02-28T12:00:52.535Z,60
2017-02-28T12:02:02.742Z,55
2017-02-28T12:03:12.070Z,90
2017-02-28T12:04:21.396Z,65
2017-02-28T12:05:31.173Z,40
2017-02-28T12:06:41.001Z,40
2017-02-28T12:07:50.771Z,45
2017-02-28T12:09:00.117Z,55
2017-02-28T12:10:09.442Z,70
2017-02-28T12:11:19.203Z,50
2017-02-28T12:12:29.020Z,35
2017-02-28T12:13:38.336Z,40
2017-02-28T12:14:48.102Z,100
2017-02-28T12:15:57.419Z,120
2017-02-28T12:17:06.753Z,115
2017-02-28T12:18:16.121Z,120
2017-02-28T12:19:25.462Z,40
2017-02-28T12:20:35.227Z,40
2017-02-28T12:21:44.593Z,55
2017-02-28T12:22:54.382Z,55
2017-02-28T12:24:04.208Z,75
2017-02-28T12:25:13.961Z,105
2017-02-28T12:26:23.298Z,40
2017-02-28T12:27:33.055Z,45
2017-02-28T12:28:42.368Z,115
2017-02-28T12:29:51.770Z,110
2017-02-28T12:31:01.975Z,85
2017-02-28T12:32:11.312Z,105
2017-02-28T12:33:21.132Z,45
2017-02-28T12:34:30.907Z,60
2017-02-28T12:35:40.735Z,45
2017-02-28T12:36:50.521Z,105
2017-02-28T12:37:59.858Z,60
2017-02-28T12:39:09.217Z,125
2017-02-28T12:40:18.976Z,145
2017-02-28T12:41:28.344Z,155
2017-02-28T12:42:38.107Z,85
2017-02-28T12:43:47.901Z,110
2017-02-28T12:44:57.241Z,115
2017-02-28T12:46:07.009Z,105
2017-02-28T12:47:16.819Z,115
2017-02-28T12:48:26.139Z,105
2017-02-28T12:49:35.918Z,75
2017-02-28T12:50:46.143Z,65
2017-02-28T12:51:55.916Z,60
2017-02-28T12:53:05.737Z,130
2017-02-28T12:54:15.498Z,135
2017-02-28T12:55:25.244Z,60
2017-02-28T12:56:35.019Z,35
2017-02-28T12:57:44.794Z,50
2017-02-28T12:58:54.154Z,50
2017-02-28T13:00:03.477Z,50
2017-02-28T13:01:13.253Z,85
2017-02-28T13:02:23.023Z,120
2017-02-28T13:03:32.368Z,95
2017-02-28T13:04:42.190Z,105
2017-02-28T13:05:51.959Z,120
2017-02-28T13:07:02.160Z,70
2017-02-28T13:08:11.469Z,60
2017-02-28T13:09:20.794Z,50
2017-02-28T13:10:30.607Z,90
2017-02-28T13:11:39.935Z,65
2017-02-28T13:12:49.292Z,60
2017-02-28T13:13:59.059Z,45
2017-02-28T13:15:09.289Z,85
2017-02-28T13:16:19.154Z,90
2017-02-28T13:17:28.491Z,85
2017-02-28T13:18:38.718Z,80
2017-02-28T13:19:48.485Z,35
2017-02-28T13:20:57.822Z,30
2017-02-28T13:22:07.223Z,45
2017-02-28T13:23:16.552Z,40
2017-02-28T13:24:25.873Z,35
2017-02-28T13:25:35.629Z,40
2017-02-28T13:26:45.382Z,35
2017-02-28T13:27:55.205Z,40
2017-02-28T13:29:04.958Z,40
2017-02-28T13:30:14.728Z,65
2017-02-28T13:31:24.033Z,70
2017-02-28T13:32:33.354Z,45
2017-02-28T13:33:43.607Z,55
2017-02-28T13:34:52.927Z,80
2017-02-28T13:36:03.137Z,50
2017-02-28T13:37:12.902Z,45
2017-02-28T13:38:22.236Z,50
2017-02-28T13:39:31.621Z,50
2017-02-28T13:40:40.981Z,40
2017-02-28T13:41:50.743Z,40
2017-02-28T13:43:00.064Z,55
2017-02-28T13:44:09.380Z,50
2017-02-28T13:45:19.627Z,55
2017-02-28T13:46:28.980Z,50
2017-02-28T13:47:38.309Z,60
2017-02-28T13:48:47.630Z,70
2017-02-28T13:49:56.960Z,55
2017-02-28T13:51:06.785Z,50
2017-02-28T13:52:16.102Z,55
2017-02-28T13:53:26.311Z,55
2017-02-28T13:54:36.080Z,65
2017-02-28T13:55:45.858Z,65
2017-02-28T13:56:55.226Z,65
2017-02-28T13:58:05.440Z,65
2017-02-28T13:59:15.661Z,65
2017-02-28T14:00:25.002Z,65
2017-02-28T14:01:35.259Z,65
2017-02-28T14:02:44.652Z,65
2017-02-28T14:03:54.438Z,65
2017-02-28T14:05:03.769Z,65
2017-02-28T14:06:13.544Z,65
2017-02-28T14:07:23.310Z,70
2017-02-28T14:08:32.687Z,65
2017-02-28T14:09:42.896Z,65
2017-02-28T14:10:52.683Z,65
2017-02-28T14:12:02.002Z,65
2017-02-28T14:13:11.323Z,65
2017-02-28T14:14:21.140Z,60
2017-02-28T14:15:30.906Z,60
2017-02-28T14:16:40.234Z,60
2017-02-28T14:17:49.562Z,60
2017-02-28T14:18:59.773Z,60
2017-02-28T14:20:09.594Z,60
2017-02-28T14:21:18.919Z,60
2017-02-28T14:22:28.264Z,60
2017-02-28T14:23:38.464Z,65
2017-02-28T14:24:48.252Z,65
2017-02-28T14:25:57.628Z,65
2017-02-28T14:27:07.865Z,65
2017-02-28T14:28:17.639Z,65
2017-02-28T14:29:27.008Z,65
2017-02-28T14:30:36.769Z,65
2017-02-28T14:31:46.574Z,65
2017-02-28T14:32:55.895Z,60
2017-02-28T14:34:05.227Z,60
2017-02-28T14:35:14.566Z,55
2017-02-28T14:36:23.910Z,55
2017-02-28T14:37:33.732Z,55
2017-02-28T14:38:43.057Z,55
2017-02-28T14:39:52.374Z,55
2017-02-28T14:41:02.124Z,55
2017-02-28T14:42:11.453Z,55
2017-02-28T14:43:20.866Z,55
2017-02-28T14:44:30.622Z,55
2017-02-28T14:45:39.929Z,55
2017-02-28T14:46:49.722Z,55
2017-02-28T14:47:59.055Z,55
2017-02-28T14:49:08.434Z,50
2017-02-28T14:50:17.749Z,50
2017-02-28T14:51:27.074Z,50
2017-02-28T14:52:36.408Z,50
2017-02-28T14:53:45.768Z,50
2017-02-28T14:54:55.162Z,50
2017-02-28T14:56:04.479Z,50
2017-02-28T14:57:14.700Z,45
2017-02-28T14:58:24.011Z,45
2017-02-28T14:59:33.778Z,45
2017-02-28T15:00:43.147Z,45
2017-02-28T15:01:52.480Z,45
2017-02-28T15:03:02.262Z,45
2017-02-28T15:04:12.062Z,45
2017-02-28T15:05:21.388Z,45
2017-02-28T15:06:31.212Z,45
2017-02-28T15:07:41.405Z,40
2017-02-28T15:08:51.162Z,40
2017-02-28T15:10:00.516Z,35
2017-02-28T15:11:09.872Z,35
2017-02-28T15:12:20.150Z,35
2017-02-28T15:13:29.915Z,35
2017-02-28T15:14:39.267Z,35
2017-02-28T15:15:49.474Z,30
2017-02-28T15:16:58.807Z,30
2017-02-28T15:18:08.612Z,35
2017-02-28T15:19:17.933Z,30
2017-02-28T15:20:27.257Z,30
2017-02-28T15:21:36.562Z,30
2017-02-28T15:22:46.341Z,30
2017-02-28T15:23:55.718Z,30
2017-02-28T15:25:05.047Z,30
2017-02-28T15:26:14.828Z,30
2017-02-28T15:27:25.065Z,30
2017-02-28T15:28:34.412Z,25
2017-02-28T15:29:44.231Z,25
2017-02-28T15:30:53.581Z,25
2017-02-28T15:32:03.798Z,25
2017-02-28T15:33:13.123Z,25
2017-02-28T15:34:22.452Z,25
2017-02-28T15:35:31.829Z,25
2017-02-28T15:36:41.175Z,25
2017-02-28T15:37:51.379Z,20
2017-02-28T15:39:00.700Z,20
2017-02-28T15:40:10.050Z,20
2017-02-28T15:41:19.856Z,20
2017-02-28T15:42:29.174Z,20
2017-02-28T15:43:38.937Z,20
2017-02-28T15:44:48.282Z,20
2017-02-28T15:45:58.043Z,20
2017-02-28T15:47:07.864Z,20
2017-02-28T15:48:17.193Z,20
2017-02-28T15:49:26.526Z,15
2017-02-28T15:50:35.840Z,15
2017-02-28T15:51:45.605Z,15
2017-02-28T15:52:55.170Z,15
2017-02-28T15:54:04.503Z,15
2017-02-28T15:55:13.832Z,15
2017-02-28T15:56:23.186Z,15
2017-02-28T15:57:32.962Z,15
2017-02-28T15:58:42.340Z,15
2017-02-28T15:59:52.541Z,15
2017-02-28T16:01:01.875Z,15
2017-02-28T16:02:12.084Z,10
2017-02-28T16:03:21.856Z,10
2017-02-28T16:04:31.245Z,10
2017-02-28T16:05:40.557Z,10
2017-02-28T16:06:50.765Z,10
2017-02-28T16:08:00.077Z,10
2017-02-28T16:09:09.394Z,10
2017-02-28T16:10:18.772Z,10
2017-02-28T16:11:28.577Z,10
2017-02-28T16:12:37.910Z,10
2017-02-28T16:13:47.683Z,10
2017-02-28T16:14:57.464Z,10
2017-02-28T16:16:07.724Z,10
2017-02-28T16:17:17.084Z,5
2017-02-28T16:18:26.404Z,5
2017-02-28T16:19:36.197Z,5
2017-02-28T16:20:45.969Z,5
2017-02-28T16:21:55.783Z,5
2017-02-28T16:23:05.112Z,5
2017-02-28T16:24:14.434Z,5
2017-02-28T16:25:23.795Z,5
2017-02-28T16:26:33.128Z,5
2017-02-28T16:27:43.013Z,5
2017-02-28T16:28:53.234Z,5
2017-02-28T16:30:03.458Z,5
2017-02-28T16:31:12.789Z,5
2017-02-28T16:32:22.126Z,5
2017-02-28T16:33:31.946Z,5
2017-02-28T16:34:41.736Z,5
2017-02-28T16:35:51.045Z,5
2017-02-28T16:37:00.402Z,0
2017-02-28T16:38:09.732Z,0
2017-02-28T16:39:19.931Z,0
2017-02-28T16:40:30.806Z,0
2017-02-28T16:41:41.151Z,0
2017-02-28T16:42:50.931Z,0
2017-02-28T16:44:01.665Z,0
2017-02-28T16:45:11.081Z,0
2017-02-28T16:46:21.286Z,0